createdAt,value
2023-03-31T00:03:05.908Z,9.88
2023-03-31T00:08:26.396Z,10
2023-03-31T00:13:45.167Z,10
2023-03-31T00:19:05.009Z,10
2023-03-31T00:24:23.764Z,10.06
2023-03-31T00:29:42.648Z,10.06
2023-03-31T00:35:01.303Z,10
2023-03-31T00:40:19.996Z,9.88
2023-03-31T00:45:38.669Z,9.81
2023-03-31T00:50:56.895Z,9.75
2023-03-31T00:56:15.476Z,9.81
2023-03-31T01:01:34.210Z,9.94
2023-03-31T01:06:53.019Z,9.94
2023-03-31T01:12:11.805Z,10
2023-03-31T01:17:30.393Z,10.06
2023-03-31T01:22:48.794Z,9.94
2023-03-31T01:28:07.365Z,10
2023-03-31T01:33:26.284Z,10
2023-03-31T01:38:44.996Z,10.06
2023-03-31T01:44:03.649Z,10
2023-03-31T01:49:23.014Z,9.94
2023-03-31T01:54:41.711Z,10.13
2023-03-31T02:00:00.356Z,10.19
2023-03-31T02:05:19.080Z,10.13
2023-03-31T02:10:37.702Z,10.13
2023-03-31T02:15:56.418Z,10.19
2023-03-31T02:21:14.982Z,10.25
2023-03-31T02:26:33.323Z,10.25
2023-03-31T02:31:52.255Z,10.19
2023-03-31T02:37:10.706Z,10.13
2023-03-31T02:42:29.006Z,10.19
2023-03-31T02:47:47.872Z,10.13
2023-03-31T02:53:06.486Z,10.13
2023-03-31T02:58:24.682Z,10.13
2023-03-31T03:03:43.543Z,10.19
2023-03-31T03:09:02.161Z,10.19
2023-03-31T03:14:20.814Z,10.13
2023-03-31T03:19:39.493Z,10.13
2023-03-31T03:24:58.269Z,10.06
2023-03-31T03:30:16.844Z,10
2023-03-31T03:35:35.650Z,9.94
2023-03-31T03:40:54.301Z,9.94
2023-03-31T03:46:12.984Z,10
2023-03-31T03:51:31.704Z,9.94
2023-03-31T03:56:50.524Z,9.81
2023-03-31T04:02:09.193Z,9.69
2023-03-31T04:07:27.906Z,9.63
2023-03-31T04:12:46.608Z,9.69
2023-03-31T04:18:05.288Z,9.81
2023-03-31T04:23:23.999Z,9.88
2023-03-31T04:28:43.641Z,9.88
2023-03-31T04:34:02.367Z,9.88
2023-03-31T04:39:21.099Z,9.88
2023-03-31T04:44:39.738Z,9.94
2023-03-31T04:49:58.302Z,10
2023-03-31T04:55:17.010Z,10
2023-03-31T05:00:35.670Z,10
2023-03-31T05:05:54.312Z,10
2023-03-31T05:11:13.012Z,9.94
2023-03-31T05:16:31.611Z,9.88
2023-03-31T05:21:50.172Z,9.88
2023-03-31T05:27:08.586Z,9.81
2023-03-31T05:32:26.953Z,9.69
2023-03-31T05:37:45.148Z,9.5
2023-03-31T05:43:03.449Z,9.38
2023-03-31T05:48:23.099Z,9.44
2023-03-31T05:53:41.926Z,9.38
2023-03-31T05:59:00.273Z,9.38
2023-03-31T06:04:18.458Z,9.38
2023-03-31T06:09:36.779Z,9.31
2023-03-31T06:14:56.372Z,9.31
2023-03-31T06:20:26.875Z,9.31
2023-03-31T06:25:43.948Z,9.38
2023-03-31T06:30:52.511Z,9.31
2023-03-31T06:36:10.956Z,9.44
2023-03-31T06:41:29.398Z,9.5
2023-03-31T06:46:48.351Z,9.56
2023-03-31T06:52:06.569Z,9.75
2023-03-31T06:57:25.022Z,9.88
2023-03-31T07:02:43.835Z,10.13
2023-03-31T07:08:02.574Z,10.06
2023-03-31T07:18:20.856Z,9.94
2023-03-31T07:23:39.906Z,10.13
2023-03-31T07:28:58.578Z,10.19
2023-03-31T07:34:17.254Z,10.38
2023-03-31T07:44:43.342Z,10.5
2023-03-31T07:50:01.736Z,10.69
2023-03-31T07:55:20.444Z,11.12
2023-03-31T08:00:39.247Z,11.38
2023-03-31T08:05:57.730Z,11.19
2023-03-31T08:11:17.151Z,10.88
2023-03-31T08:16:36.883Z,10.56
2023-03-31T08:21:55.470Z,10.69
2023-03-31T08:27:14.185Z,10.94
2023-03-31T08:32:33.035Z,11.31
2023-03-31T08:37:51.867Z,11.38
2023-03-31T08:43:10.282Z,11.44
2023-03-31T08:48:28.856Z,12.13
2023-03-31T08:53:49.000Z,13.94
2023-03-31T08:59:07.157Z,13.56
2023-03-31T09:04:25.286Z,13
2023-03-31T09:19:54.169Z,12.25
2023-03-31T09:25:12.372Z,11.5
2023-03-31T09:30:30.679Z,11.06
2023-03-31T09:35:51.500Z,10.81
2023-03-31T09:41:07.949Z,10.81
2023-03-31T09:51:33.621Z,10.94
2023-03-31T09:56:52.114Z,8.94
2023-03-31T10:02:10.565Z,8.69
2023-03-31T10:07:29.008Z,8.75
2023-03-31T10:12:47.762Z,9.06
2023-03-31T10:18:06.589Z,9.94
2023-03-31T10:23:27.175Z,10.88
2023-03-31T10:28:45.939Z,11.19
2023-03-31T10:34:04.166Z,10
2023-03-31T10:39:22.163Z,10
2023-03-31T10:44:40.967Z,10.44
2023-03-31T10:50:00.126Z,10.75
2023-03-31T10:55:18.618Z,10.38
2023-03-31T11:00:36.735Z,9.25
2023-03-31T11:05:54.262Z,8.63
2023-03-31T11:11:13.734Z,8.69
2023-03-31T11:16:32.923Z,9.44
2023-03-31T11:21:52.344Z,10.5
2023-03-31T11:27:11.256Z,10.63
2023-03-31T11:32:31.406Z,10.44
2023-03-31T11:37:49.297Z,10.69
2023-03-31T11:43:08.095Z,10.38
2023-03-31T11:48:26.833Z,11.56
2023-03-31T11:53:45.566Z,12.06
2023-03-31T11:59:04.157Z,11.12
2023-03-31T12:04:22.521Z,10.75
2023-03-31T12:09:41.890Z,10.44
2023-03-31T12:15:02.402Z,10.25
2023-03-31T12:20:20.984Z,10.44
2023-03-31T12:25:39.793Z,10.63
2023-03-31T12:30:59.634Z,10.81
2023-03-31T12:36:18.721Z,11.12
2023-03-31T12:41:37.478Z,11.5
2023-03-31T12:46:56.269Z,11.38
2023-03-31T12:52:14.986Z,11.56
2023-03-31T12:57:33.705Z,11.94
2023-03-31T13:02:52.453Z,12.19
2023-03-31T13:08:10.916Z,12.75
2023-03-31T13:13:29.356Z,13
2023-03-31T13:18:48.096Z,13.25
2023-03-31T13:24:06.677Z,13.19
2023-03-31T13:29:25.430Z,13.38
2023-03-31T13:34:43.770Z,13.31
2023-03-31T13:40:02.481Z,13.62
2023-03-31T13:45:20.941Z,13.13
2023-03-31T13:50:39.648Z,13.13
2023-03-31T13:55:58.243Z,13.13
2023-03-31T14:01:17.738Z,13
2023-03-31T14:06:36.591Z,12.75
2023-03-31T14:11:54.860Z,12.31
2023-03-31T14:17:13.276Z,11.19
2023-03-31T14:22:33.785Z,10.56
2023-03-31T14:27:52.168Z,10.5
2023-03-31T14:33:10.799Z,10.56
2023-03-31T14:38:29.760Z,11.38
2023-03-31T14:48:56.518Z,12.31
2023-03-31T14:54:18.228Z,12.13
2023-03-31T14:59:38.235Z,12.13
2023-03-31T15:04:59.270Z,12
2023-03-31T15:10:15.123Z,11.69
2023-03-31T15:15:33.641Z,11.12
2023-03-31T15:20:52.090Z,10.69
2023-03-31T15:26:12.057Z,10.88
2023-03-31T15:31:31.139Z,11.12
2023-03-31T15:36:49.807Z,11.25
2023-03-31T15:42:08.682Z,11.25
2023-03-31T15:47:27.356Z,11.19
2023-03-31T15:52:45.679Z,11.31
2023-03-31T15:58:04.323Z,11.25
2023-03-31T16:03:24.118Z,11.12
2023-03-31T16:08:42.963Z,11.06
2023-03-31T16:13:59.983Z,11
2023-03-31T16:19:18.534Z,10.94
2023-03-31T16:24:37.166Z,10.88
2023-03-31T16:29:55.911Z,10.81
2023-03-31T16:35:15.761Z,10.75
2023-03-31T16:40:34.468Z,10.69
2023-03-31T16:45:52.726Z,10.69
2023-03-31T16:51:11.583Z,10.69
2023-03-31T16:56:30.294Z,10.69
2023-03-31T17:01:48.572Z,10.69
2023-03-31T17:07:07.199Z,10.75
2023-03-31T17:12:25.855Z,10.75
2023-03-31T17:17:44.547Z,10.63
2023-03-31T17:23:02.929Z,10.5
2023-03-31T17:28:21.636Z,10.5
2023-03-31T17:33:41.363Z,10.31
2023-03-31T17:38:59.887Z,10.19
2023-03-31T17:44:18.050Z,10.13
2023-03-31T17:49:36.628Z,10.06
2023-03-31T17:54:55.317Z,10
2023-03-31T18:00:13.692Z,9.94
2023-03-31T18:05:32.502Z,9.81
2023-03-31T18:10:50.932Z,9.75
2023-03-31T18:16:09.879Z,9.75
2023-03-31T18:21:28.362Z,9.69
2023-03-31T18:26:47.003Z,9.75
2023-03-31T18:32:05.405Z,9.75
2023-03-31T18:37:23.931Z,9.63
2023-03-31T18:42:43.615Z,9.44
2023-03-31T18:48:02.498Z,9.38
2023-03-31T18:53:21.231Z,9.38
2023-03-31T18:58:40.011Z,9.44
2023-03-31T19:03:58.307Z,9.5
2023-03-31T19:09:17.038Z,9.38
2023-03-31T19:14:35.993Z,9.5
2023-03-31T19:19:56.049Z,9.56
2023-03-31T19:25:15.059Z,9.56
2023-03-31T19:30:33.388Z,9.5
2023-03-31T19:35:52.008Z,9.5
2023-03-31T19:41:10.263Z,9.44
2023-03-31T19:46:29.917Z,9.44
2023-03-31T19:51:49.666Z,9.5
2023-03-31T19:57:09.426Z,9.5
2023-03-31T20:02:28.180Z,9.44
2023-03-31T20:07:46.786Z,9.31
2023-03-31T20:13:05.645Z,9.31
2023-03-31T20:18:24.295Z,9.19
2023-03-31T20:23:43.082Z,9.19
2023-03-31T20:29:04.445Z,9.13
2023-03-31T20:34:22.765Z,9.19
2023-03-31T20:39:41.410Z,9
2023-03-31T20:44:59.883Z,9.13
2023-03-31T20:50:18.545Z,9.06
2023-03-31T20:55:36.864Z,9.06
2023-03-31T21:00:55.240Z,9
2023-03-31T21:06:16.810Z,9.06
2023-03-31T21:11:36.886Z,9.13
2023-03-31T21:16:55.179Z,8.88
2023-03-31T21:22:13.469Z,8.94
2023-03-31T21:27:32.134Z,8.75
2023-03-31T21:32:50.683Z,8.88
2023-03-31T21:38:10.266Z,9
2023-03-31T21:43:28.486Z,9
2023-03-31T21:48:47.408Z,9.06
2023-03-31T21:54:06.191Z,9.06
2023-03-31T21:59:25.014Z,9.25
2023-03-31T22:04:44.902Z,9.44
2023-03-31T22:10:03.430Z,9.56
2023-03-31T22:15:22.079Z,9.63
2023-03-31T22:20:40.788Z,9.69
2023-03-31T22:25:59.076Z,9.63
2023-03-31T22:31:17.548Z,9.69
2023-03-31T22:36:36.140Z,9.69
2023-03-31T22:41:54.701Z,9.56
2023-03-31T22:47:13.428Z,9.56
2023-03-31T22:52:31.787Z,9.38
2023-03-31T22:57:50.558Z,9.38
2023-03-31T23:08:17.353Z,9.44
2023-03-31T23:13:36.081Z,9.44
2023-03-31T23:18:54.261Z,9.44
2023-03-31T23:24:12.556Z,9.44
2023-03-31T23:29:31.245Z,9.44
2023-03-31T23:34:49.871Z,9.5
2023-03-31T23:40:08.607Z,9.44
2023-03-31T23:45:27.241Z,9.44
2023-03-31T23:50:46.210Z,9.44
2023-03-31T23:56:04.951Z,9.44
